sensor_id;sensor_type;location;lat;lon;timestamp;temperature;humidity
18648;DHT22;9453;50.294;18.644;2023-04-25T04:01:34;9.20;99.90
18648;DHT22;9453;50.294;18.644;2023-04-25T04:04:01;9.20;99.90
18648;DHT22;9453;50.294;18.644;2023-04-25T04:06:29;9.20;99.90
18648;DHT22;9453;50.294;18.644;2023-04-25T04:08:56;9.10;99.90
18648;DHT22;9453;50.294;18.644;2023-04-25T04:11:23;9.10;99.90
18648;DHT22;9453;50.294;18.644;2023-04-25T04:13:50;9.10;99.90
18648;DHT22;9453;50.294;18.644;2023-04-25T04:16:17;9.10;99.90
18648;DHT22;9453;50.294;18.644;2023-04-25T04:18:46;9.10;99.90
18648;DHT22;9453;50.294;18.644;2023-04-25T04:21:13;9.20;99.90
18648;DHT22;9453;50.294;18.644;2023-04-25T04:23:40;9.20;99.90
18648;DHT22;9453;50.294;18.644;2023-04-25T04:26:07;9.30;99.90
18648;DHT22;9453;50.294;18.644;2023-04-25T04:28:34;9.30;99.90
18648;DHT22;9453;50.294;18.644;2023-04-25T04:31:01;9.30;99.90
18648;DHT22;9453;50.294;18.644;2023-04-25T04:33:29;9.30;99.90
18648;DHT22;9453;50.294;18.644;2023-04-25T04:35:57;9.30;99.90
18648;DHT22;9453;50.294;18.644;2023-04-25T04:38:24;9.40;99.90
18648;DHT22;9453;50.294;18.644;2023-04-25T04:40:51;9.30;99.90
18648;DHT22;9453;50.294;18.644;2023-04-25T04:43:19;9.40;99.90
18648;DHT22;9453;50.294;18.644;2023-04-25T04:45:46;9.40;99.90
18648;DHT22;9453;50.294;18.644;2023-04-25T04:48:13;9.40;99.90
18648;DHT22;9453;50.294;18.644;2023-04-25T04:50:40;9.40;99.90
18648;DHT22;9453;50.294;18.644;2023-04-25T04:53:08;9.40;99.90
18648;DHT22;9453;50.294;18.644;2023-04-25T04:55:35;9.50;99.90
18648;DHT22;9453;50.294;18.644;2023-04-25T04:58:02;9.50;99.90
18648;DHT22;9453;50.294;18.644;2023-04-25T05:00:29;9.50;99.90
18648;DHT22;9453;50.294;18.644;2023-04-25T05:02:56;9.60;99.90
18648;DHT22;9453;50.294;18.644;2023-04-25T05:05:23;9.60;99.90
18648;DHT22;9453;50.294;18.644;2023-04-25T05:07:50;9.60;99.90
18648;DHT22;9453;50.294;18.644;2023-04-25T05:10:18;9.70;99.90
18648;DHT22;9453;50.294;18.644;2023-04-25T05:12:46;9.60;99.90
18648;DHT22;9453;50.294;18.644;2023-04-25T05:15:14;9.60;99.90
18648;DHT22;9453;50.294;18.644;2023-04-25T05:17:41;9.60;99.90
18648;DHT22;9453;50.294;18.644;2023-04-25T05:20:09;9.60;99.90
18648;DHT22;9453;50.294;18.644;2023-04-25T05:22:36;9.50;99.90
18648;DHT22;9453;50.294;18.644;2023-04-25T05:25:03;9.50;99.90
18648;DHT22;9453;50.294;18.644;2023-04-25T05:27:32;9.60;99.90
18648;DHT22;9453;50.294;18.644;2023-04-25T05:29:59;9.60;99.90
18648;DHT22;9453;50.294;18.644;2023-04-25T05:32:26;9.70;99.90
18648;DHT22;9453;50.294;18.644;2023-04-25T05:34:53;9.70;99.90
18648;DHT22;9453;50.294;18.644;2023-04-25T05:37:25;9.80;99.90
18648;DHT22;9453;50.294;18.644;2023-04-25T05:39:52;9.80;99.90
18648;DHT22;9453;50.294;18.644;2023-04-25T05:42:19;9.80;99.90
18648;DHT22;9453;50.294;18.644;2023-04-25T05:44:47;9.80;99.70
18648;DHT22;9453;50.294;18.644;2023-04-25T05:47:14;9.70;99.50
18648;DHT22;9453;50.294;18.644;2023-04-25T05:49:41;9.80;99.90
18648;DHT22;9453;50.294;18.644;2023-04-25T05:52:08;9.80;99.70
18648;DHT22;9453;50.294;18.644;2023-04-25T05:54:35;9.70;99.80
18648;DHT22;9453;50.294;18.644;2023-04-25T05:57:03;9.80;99.90
18648;DHT22;9453;50.294;18.644;2023-04-25T05:59:30;9.70;99.70
18648;DHT22;9453;50.294;18.644;2023-04-25T06:01:58;9.70;99.90
18648;DHT22;9453;50.294;18.644;2023-04-25T06:04:26;9.70;99.90
18648;DHT22;9453;50.294;18.644;2023-04-25T06:06:53;9.80;99.90
18648;DHT22;9453;50.294;18.644;2023-04-25T06:09:20;9.90;99.90
18648;DHT22;9453;50.294;18.644;2023-04-25T06:11:46;10.00;99.30
18648;DHT22;9453;50.294;18.644;2023-04-25T06:14:13;9.80;99.20
18648;DHT22;9453;50.294;18.644;2023-04-25T06:16:40;9.90;98.80
18648;DHT22;9453;50.294;18.644;2023-04-25T06:19:09;9.80;98.70
18648;DHT22;9453;50.294;18.644;2023-04-25T06:21:36;9.80;98.60
18648;DHT22;9453;50.294;18.644;2023-04-25T06:24:03;10.00;98.00
18648;DHT22;9453;50.294;18.644;2023-04-25T06:26:30;10.10;97.90
18648;DHT22;9453;50.294;18.644;2023-04-25T06:28:57;10.10;97.30
18648;DHT22;9453;50.294;18.644;2023-04-25T06:31:24;10.10;97.60
18648;DHT22;9453;50.294;18.644;2023-04-25T06:33:52;10.20;97.50
18648;DHT22;9453;50.294;18.644;2023-04-25T06:36:21;10.20;97.40
18648;DHT22;9453;50.294;18.644;2023-04-25T06:38:50;10.20;96.90
18648;DHT22;9453;50.294;18.644;2023-04-25T06:41:17;10.30;96.60
18648;DHT22;9453;50.294;18.644;2023-04-25T06:43:44;10.40;96.80
18648;DHT22;9453;50.294;18.644;2023-04-25T06:46:11;10.50;96.80
18648;DHT22;9453;50.294;18.644;2023-04-25T06:48:38;10.40;96.30
18648;DHT22;9453;50.294;18.644;2023-04-25T06:51:05;10.40;96.00
18648;DHT22;9453;50.294;18.644;2023-04-25T06:53:33;10.40;95.80
18648;DHT22;9453;50.294;18.644;2023-04-25T06:56:00;10.40;95.90
18648;DHT22;9453;50.294;18.644;2023-04-25T06:58:27;10.60;95.50
18648;DHT22;9453;50.294;18.644;2023-04-25T07:00:54;10.50;95.10
18648;DHT22;9453;50.294;18.644;2023-04-25T07:03:21;10.50;95.40
18648;DHT22;9453;50.294;18.644;2023-04-25T07:05:48;10.60;94.60
18648;DHT22;9453;50.294;18.644;2023-04-25T07:08:15;10.60;94.80
18648;DHT22;9453;50.294;18.644;2023-04-25T07:10:44;10.80;94.90
18648;DHT22;9453;50.294;18.644;2023-04-25T07:13:11;10.70;94.40
18648;DHT22;9453;50.294;18.644;2023-04-25T07:15:38;10.80;94.10
18648;DHT22;9453;50.294;18.644;2023-04-25T07:18:05;10.90;93.60
18648;DHT22;9453;50.294;18.644;2023-04-25T07:20:32;10.60;93.40
18648;DHT22;9453;50.294;18.644;2023-04-25T07:22:59;10.60;93.40
18648;DHT22;9453;50.294;18.644;2023-04-25T07:25:26;10.80;93.70
18648;DHT22;9453;50.294;18.644;2023-04-25T07:27:55;10.80;93.20
18648;DHT22;9453;50.294;18.644;2023-04-25T07:30:22;10.80;92.70
18648;DHT22;9453;50.294;18.644;2023-04-25T07:32:49;10.90;92.70
18648;DHT22;9453;50.294;18.644;2023-04-25T07:35:16;11.00;91.90
18648;DHT22;9453;50.294;18.644;2023-04-25T07:37:44;11.00;92.20
18648;DHT22;9453;50.294;18.644;2023-04-25T07:40:11;11.10;91.20
18648;DHT22;9453;50.294;18.644;2023-04-25T07:42:38;11.10;91.90
18648;DHT22;9453;50.294;18.644;2023-04-25T07:45:08;11.20;91.10
18648;DHT22;9453;50.294;18.644;2023-04-25T07:47:36;11.10;90.50
18648;DHT22;9453;50.294;18.644;2023-04-25T07:50:04;11.30;90.30
18648;DHT22;9453;50.294;18.644;2023-04-25T07:52:31;11.40;90.30
18648;DHT22;9453;50.294;18.644;2023-04-25T07:54:58;11.40;90.50
18648;DHT22;9453;50.294;18.644;2023-04-25T07:57:25;11.60;90.50
18648;DHT22;9453;50.294;18.644;2023-04-25T07:59:52;11.90;90.50
18648;DHT22;9453;50.294;18.644;2023-04-25T08:02:21;11.90;88.10
18648;DHT22;9453;50.294;18.644;2023-04-25T08:04:48;12.00;87.00
18648;DHT22;9453;50.294;18.644;2023-04-25T08:07:15;11.90;85.80
18648;DHT22;9453;50.294;18.644;2023-04-25T08:09:42;11.90;87.60
18648;DHT22;9453;50.294;18.644;2023-04-25T08:12:09;12.10;86.00
18648;DHT22;9453;50.294;18.644;2023-04-25T08:14:36;12.00;84.00
18648;DHT22;9453;50.294;18.644;2023-04-25T08:17:05;11.90;84.10
18648;DHT22;9453;50.294;18.644;2023-04-25T08:19:33;11.80;83.30
18648;DHT22;9453;50.294;18.644;2023-04-25T08:22:00;12.00;84.20
18648;DHT22;9453;50.294;18.644;2023-04-25T08:24:27;12.20;82.40
18648;DHT22;9453;50.294;18.644;2023-04-25T08:26:54;12.40;82.40
18648;DHT22;9453;50.294;18.644;2023-04-25T08:29:21;12.70;81.20
18648;DHT22;9453;50.294;18.644;2023-04-25T08:31:49;12.40;80.00
18648;DHT22;9453;50.294;18.644;2023-04-25T08:34:18;12.50;81.10
18648;DHT22;9453;50.294;18.644;2023-04-25T08:36:46;12.80;80.80
18648;DHT22;9453;50.294;18.644;2023-04-25T08:39:13;12.70;79.80
18648;DHT22;9453;50.294;18.644;2023-04-25T08:41:41;12.90;79.60
18648;DHT22;9453;50.294;18.644;2023-04-25T08:44:10;13.30;80.50
18648;DHT22;9453;50.294;18.644;2023-04-25T08:46:38;13.50;76.40
18648;DHT22;9453;50.294;18.644;2023-04-25T08:49:05;13.40;74.50
18648;DHT22;9453;50.294;18.644;2023-04-25T08:51:32;13.40;73.80
18648;DHT22;9453;50.294;18.644;2023-04-25T08:54:08;13.20;74.50
18648;DHT22;9453;50.294;18.644;2023-04-25T08:56:36;12.80;74.70
18648;DHT22;9453;50.294;18.644;2023-04-25T08:59:03;13.00;76.70
18648;DHT22;9453;50.294;18.644;2023-04-25T09:01:33;13.20;74.60
18648;DHT22;9453;50.294;18.644;2023-04-25T09:04:01;13.30;73.60
18648;DHT22;9453;50.294;18.644;2023-04-25T09:06:28;13.10;72.70
18648;DHT22;9453;50.294;18.644;2023-04-25T09:09:03;13.10;73.40
18648;DHT22;9453;50.294;18.644;2023-04-25T09:11:31;13.20;72.50
18648;DHT22;9453;50.294;18.644;2023-04-25T09:14:12;13.20;70.30
18648;DHT22;9453;50.294;18.644;2023-04-25T09:16:59;13.00;70.40
18648;DHT22;9453;50.294;18.644;2023-04-25T09:19:29;13.00;72.30
18648;DHT22;9453;50.294;18.644;2023-04-25T09:21:58;13.00;70.60
18648;DHT22;9453;50.294;18.644;2023-04-25T09:24:34;12.70;72.00
18648;DHT22;9453;50.294;18.644;2023-04-25T09:27:05;12.60;71.10
18648;DHT22;9453;50.294;18.644;2023-04-25T09:29:33;12.70;70.40
18648;DHT22;9453;50.294;18.644;2023-04-25T09:32:16;12.60;70.10
18648;DHT22;9453;50.294;18.644;2023-04-25T09:34:44;12.70;69.00
18648;DHT22;9453;50.294;18.644;2023-04-25T09:37:17;12.80;69.70
18648;DHT22;9453;50.294;18.644;2023-04-25T09:39:48;12.90;70.50
18648;DHT22;9453;50.294;18.644;2023-04-25T09:42:16;13.10;69.90
18648;DHT22;9453;50.294;18.644;2023-04-25T09:44:44;13.00;68.50
18648;DHT22;9453;50.294;18.644;2023-04-25T09:47:11;12.90;68.20
18648;DHT22;9453;50.294;18.644;2023-04-25T09:49:40;12.80;68.80
18648;DHT22;9453;50.294;18.644;2023-04-25T09:52:08;12.90;70.40
18648;DHT22;9453;50.294;18.644;2023-04-25T09:54:35;13.20;69.60
18648;DHT22;9453;50.294;18.644;2023-04-25T09:57:10;12.80;68.40
18648;DHT22;9453;50.294;18.644;2023-04-25T09:59:39;12.90;69.80
18648;DHT22;9453;50.294;18.644;2023-04-25T10:02:09;13.20;69.20
18648;DHT22;9453;50.294;18.644;2023-04-25T10:04:38;13.00;68.70
18648;DHT22;9453;50.294;18.644;2023-04-25T10:07:06;13.10;69.10
18648;DHT22;9453;50.294;18.644;2023-04-25T10:09:36;13.00;69.10
18648;DHT22;9453;50.294;18.644;2023-04-25T10:12:05;13.10;70.00
18648;DHT22;9453;50.294;18.644;2023-04-25T10:14:32;13.10;68.10
18648;DHT22;9453;50.294;18.644;2023-04-25T10:16:59;13.00;67.80
18648;DHT22;9453;50.294;18.644;2023-04-25T10:19:27;13.00;68.90
18648;DHT22;9453;50.294;18.644;2023-04-25T10:21:58;13.10;67.40
18648;DHT22;9453;50.294;18.644;2023-04-25T10:24:29;13.10;67.90
18648;DHT22;9453;50.294;18.644;2023-04-25T10:26:56;13.20;67.40
18648;DHT22;9453;50.294;18.644;2023-04-25T10:29:26;13.40;66.80
18648;DHT22;9453;50.294;18.644;2023-04-25T10:31:53;13.70;65.10
18648;DHT22;9453;50.294;18.644;2023-04-25T10:34:24;13.40;64.10
18648;DHT22;9453;50.294;18.644;2023-04-25T10:36:52;13.20;66.20
18648;DHT22;9453;50.294;18.644;2023-04-25T10:39:23;13.30;66.40
18648;DHT22;9453;50.294;18.644;2023-04-25T10:41:56;13.30;66.10
18648;DHT22;9453;50.294;18.644;2023-04-25T10:44:28;13.30;65.60
18648;DHT22;9453;50.294;18.644;2023-04-25T10:46:55;13.00;65.60
18648;DHT22;9453;50.294;18.644;2023-04-25T10:49:31;12.80;66.20
18648;DHT22;9453;50.294;18.644;2023-04-25T10:52:18;12.70;66.50
18648;DHT22;9453;50.294;18.644;2023-04-25T10:54:50;12.90;67.80
18648;DHT22;9453;50.294;18.644;2023-04-25T10:57:28;13.20;66.20
18648;DHT22;9453;50.294;18.644;2023-04-25T11:00:00;13.20;65.00
18648;DHT22;9453;50.294;18.644;2023-04-25T11:02:31;13.30;66.30
18648;DHT22;9453;50.294;18.644;2023-04-25T11:04:59;13.40;65.90
18648;DHT22;9453;50.294;18.644;2023-04-25T11:07:33;13.10;64.80
18648;DHT22;9453;50.294;18.644;2023-04-25T11:10:03;13.10;66.70
18648;DHT22;9453;50.294;18.644;2023-04-25T11:12:31;13.00;66.70
18648;DHT22;9453;50.294;18.644;2023-04-25T11:15:00;12.90;66.70
18648;DHT22;9453;50.294;18.644;2023-04-25T11:17:28;12.80;67.00
18648;DHT22;9453;50.294;18.644;2023-04-25T11:19:55;12.80;67.80
18648;DHT22;9453;50.294;18.644;2023-04-25T11:22:23;12.80;67.30
18648;DHT22;9453;50.294;18.644;2023-04-25T11:24:50;12.70;67.90
18648;DHT22;9453;50.294;18.644;2023-04-25T11:27:17;12.50;67.60
18648;DHT22;9453;50.294;18.644;2023-04-25T11:43:37;12.80;68.90
18648;DHT22;9453;50.294;18.644;2023-04-25T12:23:06;12.60;67.00
18648;DHT22;9453;50.294;18.644;2023-04-25T12:25:35;12.60;67.50
18648;DHT22;9453;50.294;18.644;2023-04-25T12:28:11;12.70;68.00
18648;DHT22;9453;50.294;18.644;2023-04-25T12:30:55;12.70;67.90
18648;DHT22;9453;50.294;18.644;2023-04-25T12:33:23;12.80;67.40
18648;DHT22;9453;50.294;18.644;2023-04-25T12:35:50;12.70;68.00
18648;DHT22;9453;50.294;18.644;2023-04-25T12:38:38;12.80;68.00
18648;DHT22;9453;50.294;18.644;2023-04-25T12:41:06;12.80;68.10
18648;DHT22;9453;50.294;18.644;2023-04-25T12:43:33;13.00;67.50
18648;DHT22;9453;50.294;18.644;2023-04-25T12:46:00;13.00;67.20
18648;DHT22;9453;50.294;18.644;2023-04-25T12:48:29;13.00;67.80
18648;DHT22;9453;50.294;18.644;2023-04-25T12:50:56;13.10;67.80
18648;DHT22;9453;50.294;18.644;2023-04-25T12:53:23;13.30;67.90
18648;DHT22;9453;50.294;18.644;2023-04-25T12:55:52;13.30;66.00
18648;DHT22;9453;50.294;18.644;2023-04-25T12:58:19;13.40;66.80
18648;DHT22;9453;50.294;18.644;2023-04-25T13:00:46;13.30;67.10
18648;DHT22;9453;50.294;18.644;2023-04-25T13:03:13;13.10;66.50
18648;DHT22;9453;50.294;18.644;2023-04-25T13:05:41;13.20;68.70
18648;DHT22;9453;50.294;18.644;2023-04-25T13:08:08;13.30;67.50
18648;DHT22;9453;50.294;18.644;2023-04-25T13:10:35;13.50;66.80
18648;DHT22;9453;50.294;18.644;2023-04-25T13:13:05;13.80;67.00
18648;DHT22;9453;50.294;18.644;2023-04-25T13:15:32;13.80;65.70
18648;DHT22;9453;50.294;18.644;2023-04-25T13:17:59;13.80;66.20
18648;DHT22;9453;50.294;18.644;2023-04-25T13:20:26;13.60;65.90
18648;DHT22;9453;50.294;18.644;2023-04-25T13:22:53;13.70;66.70
18648;DHT22;9453;50.294;18.644;2023-04-25T13:25:20;13.90;65.50
18648;DHT22;9453;50.294;18.644;2023-04-25T13:27:48;14.10;65.40
18648;DHT22;9453;50.294;18.644;2023-04-25T13:30:16;14.30;63.80
18648;DHT22;9453;50.294;18.644;2023-04-25T13:32:43;14.30;63.10
18648;DHT22;9453;50.294;18.644;2023-04-25T13:35:12;14.60;64.40
18648;DHT22;9453;50.294;18.644;2023-04-25T13:37:40;14.50;63.60
18648;DHT22;9453;50.294;18.644;2023-04-25T13:40:09;14.50;63.70
18648;DHT22;9453;50.294;18.644;2023-04-25T13:42:37;14.30;63.60
18648;DHT22;9453;50.294;18.644;2023-04-25T13:45:05;14.20;63.50
18648;DHT22;9453;50.294;18.644;2023-04-25T13:47:34;14.00;64.40
18648;DHT22;9453;50.294;18.644;2023-04-25T13:50:02;13.90;64.30
18648;DHT22;9453;50.294;18.644;2023-04-25T13:52:29;13.70;64.50
18648;DHT22;9453;50.294;18.644;2023-04-25T13:54:56;13.60;65.20
18648;DHT22;9453;50.294;18.644;2023-04-25T13:57:23;13.50;66.20
18648;DHT22;9453;50.294;18.644;2023-04-25T13:59:50;13.40;66.50
18648;DHT22;9453;50.294;18.644;2023-04-25T14:02:18;13.50;66.70
18648;DHT22;9453;50.294;18.644;2023-04-25T14:04:47;13.70;66.80
18648;DHT22;9453;50.294;18.644;2023-04-25T14:07:14;14.00;65.20
18648;DHT22;9453;50.294;18.644;2023-04-25T14:09:43;14.20;63.80
18648;DHT22;9453;50.294;18.644;2023-04-25T14:12:10;14.40;63.40
18648;DHT22;9453;50.294;18.644;2023-04-25T14:14:38;14.90;63.90
18648;DHT22;9453;50.294;18.644;2023-04-25T14:17:04;15.30;61.00
18648;DHT22;9453;50.294;18.644;2023-04-25T14:19:32;15.30;59.40
18648;DHT22;9453;50.294;18.644;2023-04-25T14:22:00;14.90;60.40
18648;DHT22;9453;50.294;18.644;2023-04-25T14:24:27;14.90;62.00
18648;DHT22;9453;50.294;18.644;2023-04-25T14:26:54;14.80;62.00
18648;DHT22;9453;50.294;18.644;2023-04-25T14:29:22;14.40;61.80
18648;DHT22;9453;50.294;18.644;2023-04-25T14:31:49;14.10;62.70
18648;DHT22;9453;50.294;18.644;2023-04-25T14:34:16;14.10;62.70
18648;DHT22;9453;50.294;18.644;2023-04-25T14:36:43;13.80;63.60
18648;DHT22;9453;50.294;18.644;2023-04-25T14:39:12;13.50;64.10
18648;DHT22;9453;50.294;18.644;2023-04-25T14:41:40;13.30;64.30
18648;DHT22;9453;50.294;18.644;2023-04-25T14:44:07;13.20;64.80
18648;DHT22;9453;50.294;18.644;2023-04-25T14:46:34;13.00;65.60
18648;DHT22;9453;50.294;18.644;2023-04-25T14:49:01;13.00;66.10
18648;DHT22;9453;50.294;18.644;2023-04-25T14:51:28;13.00;65.90
18648;DHT22;9453;50.294;18.644;2023-04-25T14:53:56;13.20;66.40
18648;DHT22;9453;50.294;18.644;2023-04-25T14:56:25;13.30;67.20
18648;DHT22;9453;50.294;18.644;2023-04-25T14:58:52;13.60;67.20
18648;DHT22;9453;50.294;18.644;2023-04-25T15:01:19;13.80;65.40
18648;DHT22;9453;50.294;18.644;2023-04-25T15:03:48;14.10;65.30
18648;DHT22;9453;50.294;18.644;2023-04-25T15:06:16;14.20;64.00
18648;DHT22;9453;50.294;18.644;2023-04-25T15:08:43;14.40;64.20
18648;DHT22;9453;50.294;18.644;2023-04-25T15:11:10;14.50;63.90
18648;DHT22;9453;50.294;18.644;2023-04-25T15:13:39;14.60;63.60
18648;DHT22;9453;50.294;18.644;2023-04-25T15:16:06;14.50;63.50
18648;DHT22;9453;50.294;18.644;2023-04-25T15:18:32;14.30;64.90
18648;DHT22;9453;50.294;18.644;2023-04-25T15:20:59;14.10;65.70
18648;DHT22;9453;50.294;18.644;2023-04-25T15:23:26;13.90;66.70
18648;DHT22;9453;50.294;18.644;2023-04-25T15:25:53;13.60;66.00
18648;DHT22;9453;50.294;18.644;2023-04-25T15:28:20;13.50;66.70
18648;DHT22;9453;50.294;18.644;2023-04-25T15:30:49;13.40;67.50
18648;DHT22;9453;50.294;18.644;2023-04-25T15:33:16;13.30;66.10
18648;DHT22;9453;50.294;18.644;2023-04-25T15:35:43;13.20;66.60
18648;DHT22;9453;50.294;18.644;2023-04-25T15:38:11;13.30;67.10
18648;DHT22;9453;50.294;18.644;2023-04-25T15:40:38;13.70;66.80
18648;DHT22;9453;50.294;18.644;2023-04-25T15:43:05;14.00;63.00
18648;DHT22;9453;50.294;18.644;2023-04-25T15:45:32;14.40;60.80
18648;DHT22;9453;50.294;18.644;2023-04-25T15:48:03;14.30;60.50
18648;DHT22;9453;50.294;18.644;2023-04-25T15:50:30;14.20;60.40
18648;DHT22;9453;50.294;18.644;2023-04-25T15:52:57;14.10;60.00
18648;DHT22;9453;50.294;18.644;2023-04-25T15:55:25;14.20;60.70
18648;DHT22;9453;50.294;18.644;2023-04-25T15:57:52;14.50;60.00
18648;DHT22;9453;50.294;18.644;2023-04-25T16:00:19;14.50;61.00
18648;DHT22;9453;50.294;18.644;2023-04-25T16:02:47;14.40;61.50
18648;DHT22;9453;50.294;18.644;2023-04-25T16:05:15;14.30;61.80
18648;DHT22;9453;50.294;18.644;2023-04-25T16:07:43;14.10;62.10
18648;DHT22;9453;50.294;18.644;2023-04-25T16:10:12;13.90;62.60
18648;DHT22;9453;50.294;18.644;2023-04-25T16:12:39;13.70;62.30
18648;DHT22;9453;50.294;18.644;2023-04-25T16:15:07;13.50;61.60
18648;DHT22;9453;50.294;18.644;2023-04-25T16:17:34;13.40;61.20
18648;DHT22;9453;50.294;18.644;2023-04-25T16:20:01;13.20;61.40
18648;DHT22;9453;50.294;18.644;2023-04-25T16:22:35;13.10;61.60
18648;DHT22;9453;50.294;18.644;2023-04-25T16:25:02;13.00;62.00
18648;DHT22;9453;50.294;18.644;2023-04-25T16:27:30;12.90;61.60
18648;DHT22;9453;50.294;18.644;2023-04-25T16:29:59;12.90;62.00
18648;DHT22;9453;50.294;18.644;2023-04-25T16:32:26;12.80;61.30
18648;DHT22;9453;50.294;18.644;2023-04-25T16:34:53;12.80;61.70
18648;DHT22;9453;50.294;18.644;2023-04-25T16:37:20;12.70;61.50
18648;DHT22;9453;50.294;18.644;2023-04-25T16:39:48;12.70;61.70
18648;DHT22;9453;50.294;18.644;2023-04-25T16:42:15;12.70;62.70
18648;DHT22;9453;50.294;18.644;2023-04-25T16:44:42;12.50;62.80
18648;DHT22;9453;50.294;18.644;2023-04-25T16:47:09;12.50;63.00
18648;DHT22;9453;50.294;18.644;2023-04-25T16:49:37;12.40;63.70
18648;DHT22;9453;50.294;18.644;2023-04-25T16:52:05;12.40;64.00
18648;DHT22;9453;50.294;18.644;2023-04-25T16:54:32;12.10;63.30
18648;DHT22;9453;50.294;18.644;2023-04-25T16:57:00;12.00;63.50
18648;DHT22;9453;50.294;18.644;2023-04-25T16:59:29;11.90;64.30
18648;DHT22;9453;50.294;18.644;2023-04-25T17:01:56;11.90;64.10
18648;DHT22;9453;50.294;18.644;2023-04-25T17:04:23;11.80;64.40
18648;DHT22;9453;50.294;18.644;2023-04-25T17:06:49;11.90;65.60
18648;DHT22;9453;50.294;18.644;2023-04-25T17:09:16;11.90;66.20
18648;DHT22;9453;50.294;18.644;2023-04-25T17:11:43;11.90;66.30
18648;DHT22;9453;50.294;18.644;2023-04-25T17:14:12;11.80;65.80
18648;DHT22;9453;50.294;18.644;2023-04-25T17:16:39;11.80;66.80
18648;DHT22;9453;50.294;18.644;2023-04-25T17:19:06;11.70;66.80
18648;DHT22;9453;50.294;18.644;2023-04-25T17:21:34;11.70;67.40
18648;DHT22;9453;50.294;18.644;2023-04-25T17:24:03;11.60;67.60
18648;DHT22;9453;50.294;18.644;2023-04-25T17:26:34;11.60;68.50
18648;DHT22;9453;50.294;18.644;2023-04-25T17:29:01;11.40;68.80
18648;DHT22;9453;50.294;18.644;2023-04-25T17:31:29;11.40;69.20
18648;DHT22;9453;50.294;18.644;2023-04-25T17:33:56;11.30;69.70
18648;DHT22;9453;50.294;18.644;2023-04-25T17:36:23;11.20;69.50
18648;DHT22;9453;50.294;18.644;2023-04-25T17:38:50;11.10;70.30
18648;DHT22;9453;50.294;18.644;2023-04-25T17:41:17;11.10;70.90
18648;DHT22;9453;50.294;18.644;2023-04-25T17:43:45;11.00;71.40
18648;DHT22;9453;50.294;18.644;2023-04-25T17:46:12;10.90;71.60
18648;DHT22;9453;50.294;18.644;2023-04-25T17:48:40;10.90;71.80
18648;DHT22;9453;50.294;18.644;2023-04-25T17:51:07;10.80;72.10
18648;DHT22;9453;50.294;18.644;2023-04-25T17:53:34;10.80;71.90
18648;DHT22;9453;50.294;18.644;2023-04-25T17:56:02;10.70;72.30
18648;DHT22;9453;50.294;18.644;2023-04-25T17:58:29;10.70;72.90
18648;DHT22;9453;50.294;18.644;2023-04-25T18:00:56;10.70;72.70
18648;DHT22;9453;50.294;18.644;2023-04-25T18:03:23;10.60;72.80
18648;DHT22;9453;50.294;18.644;2023-04-25T18:05:52;10.60;73.50
18648;DHT22;9453;50.294;18.644;2023-04-25T18:08:18;10.50;73.20
18648;DHT22;9453;50.294;18.644;2023-04-25T18:10:47;10.50;73.50
18648;DHT22;9453;50.294;18.644;2023-04-25T18:13:14;10.40;73.90
18648;DHT22;9453;50.294;18.644;2023-04-25T18:15:41;10.40;74.00
18648;DHT22;9453;50.294;18.644;2023-04-25T18:18:09;10.30;74.20
18648;DHT22;9453;50.294;18.644;2023-04-25T18:20:44;10.30;74.40
18648;DHT22;9453;50.294;18.644;2023-04-25T18:23:13;10.20;74.60
18648;DHT22;9453;50.294;18.644;2023-04-25T18:25:41;10.20;75.10
18648;DHT22;9453;50.294;18.644;2023-04-25T18:28:08;10.10;74.80
18648;DHT22;9453;50.294;18.644;2023-04-25T18:30:35;10.10;75.40
18648;DHT22;9453;50.294;18.644;2023-04-25T18:33:02;10.10;75.60
18648;DHT22;9453;50.294;18.644;2023-04-25T18:35:29;10.10;75.60
18648;DHT22;9453;50.294;18.644;2023-04-25T18:37:56;10.10;75.80
18648;DHT22;9453;50.294;18.644;2023-04-25T18:40:25;10.00;76.00
18648;DHT22;9453;50.294;18.644;2023-04-25T18:42:52;10.00;76.30
18648;DHT22;9453;50.294;18.644;2023-04-25T18:45:19;10.00;76.70
18648;DHT22;9453;50.294;18.644;2023-04-25T18:47:46;10.00;76.80
18648;DHT22;9453;50.294;18.644;2023-04-25T18:50:12;9.90;78.20
18648;DHT22;9453;50.294;18.644;2023-04-25T18:52:40;9.90;78.60
18648;DHT22;9453;50.294;18.644;2023-04-25T18:55:08;9.90;78.70
18648;DHT22;9453;50.294;18.644;2023-04-25T18:57:37;9.90;78.90
18648;DHT22;9453;50.294;18.644;2023-04-25T19:00:05;9.90;79.20
18648;DHT22;9453;50.294;18.644;2023-04-25T19:02:33;9.90;79.00
18648;DHT22;9453;50.294;18.644;2023-04-25T19:05:01;9.90;79.50
18648;DHT22;9453;50.294;18.644;2023-04-25T19:07:28;9.90;79.20
18648;DHT22;9453;50.294;18.644;2023-04-25T19:09:56;9.90;79.60
18648;DHT22;9453;50.294;18.644;2023-04-25T19:12:24;9.90;79.60
18648;DHT22;9453;50.294;18.644;2023-04-25T19:14:52;9.80;79.80
18648;DHT22;9453;50.294;18.644;2023-04-25T19:17:19;9.80;79.90
18648;DHT22;9453;50.294;18.644;2023-04-25T19:19:46;9.70;80.10
18648;DHT22;9453;50.294;18.644;2023-04-25T19:22:13;9.70;80.80
18648;DHT22;9453;50.294;18.644;2023-04-25T19:24:40;9.70;81.40
18648;DHT22;9453;50.294;18.644;2023-04-25T19:27:07;9.60;82.00
18648;DHT22;9453;50.294;18.644;2023-04-25T19:29:34;9.60;82.40
18648;DHT22;9453;50.294;18.644;2023-04-25T19:32:04;9.50;82.60
18648;DHT22;9453;50.294;18.644;2023-04-25T19:34:32;9.50;82.90
18648;DHT22;9453;50.294;18.644;2023-04-25T19:37:02;9.50;83.40
18648;DHT22;9453;50.294;18.644;2023-04-25T19:39:29;9.50;83.70
18648;DHT22;9453;50.294;18.644;2023-04-25T19:41:56;9.50;83.80
18648;DHT22;9453;50.294;18.644;2023-04-25T19:44:23;9.50;84.10
18648;DHT22;9453;50.294;18.644;2023-04-25T19:46:50;9.50;84.70
18648;DHT22;9453;50.294;18.644;2023-04-25T19:49:19;9.60;85.10
18648;DHT22;9453;50.294;18.644;2023-04-25T19:51:45;9.60;85.30
18648;DHT22;9453;50.294;18.644;2023-04-25T19:54:12;9.60;85.60
18648;DHT22;9453;50.294;18.644;2023-04-25T19:56:39;9.60;86.10
18648;DHT22;9453;50.294;18.644;2023-04-25T19:59:06;9.50;86.20
18648;DHT22;9453;50.294;18.644;2023-04-25T20:01:34;9.50;86.60
18648;DHT22;9453;50.294;18.644;2023-04-25T20:04:00;9.50;87.30
18648;DHT22;9453;50.294;18.644;2023-04-25T20:06:29;9.40;87.40
18648;DHT22;9453;50.294;18.644;2023-04-25T20:08:57;9.40;87.40
18648;DHT22;9453;50.294;18.644;2023-04-25T20:11:24;9.40;86.90
18648;DHT22;9453;50.294;18.644;2023-04-25T20:13:53;9.40;86.70
18648;DHT22;9453;50.294;18.644;2023-04-25T20:16:20;9.40;86.90
18648;DHT22;9453;50.294;18.644;2023-04-25T20:18:48;9.40;86.80
18648;DHT22;9453;50.294;18.644;2023-04-25T20:21:17;9.50;86.60
18648;DHT22;9453;50.294;18.644;2023-04-25T20:23:46;9.40;86.40
18648;DHT22;9453;50.294;18.644;2023-04-25T20:26:13;9.50;86.80
18648;DHT22;9453;50.294;18.644;2023-04-25T20:28:40;9.50;86.50
18648;DHT22;9453;50.294;18.644;2023-04-25T20:31:08;9.50;86.50